createdAt,value
2018-12-11T00:04:11.084Z,56.67
2018-12-11T00:07:06.128Z,63.00
2018-12-11T00:09:53.288Z,66.93
2018-12-11T00:12:38.887Z,60.93
2018-12-11T00:15:27.131Z,64.70
2018-12-11T00:18:12.201Z,59.40
2018-12-11T00:20:58.210Z,58.23
2018-12-11T00:41:48.104Z,69.27
2018-12-11T00:44:33.998Z,61.87
2018-12-11T00:47:16.861Z,61.10
2018-12-11T00:50:02.206Z,71.03
2018-12-11T00:52:45.567Z,72.30
2018-12-11T00:55:31.155Z,63.63
2018-12-11T00:58:13.659Z,59.50
2018-12-11T01:00:54.943Z,59.30
2018-12-11T01:21:40.963Z,45.40
2018-12-11T01:24:27.160Z,45.53
2018-12-11T01:27:12.288Z,46.93
2018-12-11T01:29:57.054Z,48.90
2018-12-11T01:32:41.241Z,45.77
2018-12-11T01:35:29.182Z,45.60
2018-12-11T01:38:19.245Z,49.27
2018-12-11T01:59:07.223Z,39.00
2018-12-11T02:01:57.737Z,41.53
2018-12-11T02:04:42.046Z,39.17
2018-12-11T02:07:27.271Z,41.53
2018-12-11T02:10:20.325Z,44.10
2018-12-11T02:13:06.174Z,39.23
2018-12-11T02:15:58.303Z,38.00
2018-12-11T02:22:24.334Z,37.37
2018-12-11T02:25:11.287Z,38.67
2018-12-11T02:28:05.247Z,38.13
2018-12-11T02:30:56.207Z,36.50
2018-12-11T02:33:44.862Z,38.43
2018-12-11T02:36:38.302Z,35.13
2018-12-11T02:39:22.743Z,33.80
2018-12-11T03:00:07.281Z,33.93
2018-12-11T03:02:54.324Z,33.03
2018-12-11T03:05:38.128Z,34.90
2018-12-11T03:08:22.184Z,34.80
2018-12-11T03:11:06.230Z,33.87
2018-12-11T03:13:52.990Z,33.10
2018-12-11T03:16:43.294Z,33.87
2018-12-11T03:22:27.295Z,36.90
2018-12-11T03:25:19.295Z,38.00
2018-12-11T03:31:04.946Z,36.47
2018-12-11T03:33:52.386Z,37.10
2018-12-11T03:54:42.077Z,42.43
2018-12-11T03:57:31.298Z,46.47
2018-12-11T04:06:11.742Z,47.40
2018-12-11T04:09:01.277Z,49.10
2018-12-11T04:11:51.157Z,39.20
2018-12-11T04:36:57.992Z,54.50
2018-12-11T04:39:46.999Z,54.70
2018-12-11T04:42:39.431Z,43.10
2018-12-11T04:45:30.744Z,37.43
2018-12-11T04:48:19.397Z,36.20
2018-12-11T04:51:14.220Z,44.20
2018-12-11T05:12:05.031Z,38.60
2018-12-11T05:14:54.518Z,43.10
2018-12-11T05:17:41.239Z,37.70
2018-12-11T05:20:30.816Z,37.03
2018-12-11T05:23:23.460Z,39.30
2018-12-11T05:26:10.477Z,37.93
2018-12-11T05:29:01.333Z,48.10
2018-12-11T05:35:21.394Z,38.80
2018-12-11T05:38:09.433Z,40.33
2018-12-11T05:40:57.123Z,48.37
2018-12-11T05:43:47.972Z,42.37
2018-12-11T05:46:45.842Z,39.63
2018-12-11T05:49:42.744Z,39.67
2018-12-11T05:52:28.023Z,39.07
2018-12-11T06:13:22.333Z,50.90
2018-12-11T06:19:08.495Z,48.00
2018-12-11T06:21:57.265Z,50.63
2018-12-11T06:27:33.046Z,55.53
2018-12-11T06:30:20.144Z,45.00
2018-12-11T06:36:17.379Z,39.40
2018-12-11T06:39:00.805Z,37.87
2018-12-11T06:41:55.525Z,37.73
2018-12-11T06:44:39.962Z,39.63
2018-12-11T06:50:24.348Z,39.17
2018-12-11T06:53:07.200Z,37.43
2018-12-11T07:13:51.383Z,39.03
2018-12-11T07:16:39.667Z,32.60
2018-12-11T07:19:23.464Z,28.67
2018-12-11T07:22:13.964Z,29.17
2018-12-11T07:25:02.001Z,30.17
2018-12-11T07:27:47.238Z,29.43
2018-12-11T07:30:33.478Z,31.90
2018-12-11T07:33:21.164Z,32.23
2018-12-11T07:54:09.541Z,30.87
2018-12-11T07:56:57.113Z,33.57
2018-12-11T07:59:45.463Z,32.97
2018-12-11T08:02:27.968Z,35.23
2018-12-11T08:05:15.417Z,37.23
2018-12-11T08:07:59.146Z,37.33
2018-12-11T08:10:49.022Z,35.10
2018-12-11T08:31:33.508Z,34.97
2018-12-11T08:34:21.193Z,37.00
2018-12-11T08:37:06.464Z,37.13
2018-12-11T08:39:52.099Z,35.30
2018-12-11T08:42:41.593Z,45.97
2018-12-11T08:45:26.599Z,39.73
2018-12-11T08:48:10.331Z,35.67
2018-12-11T09:02:12.661Z,35.60
2018-12-11T09:04:59.542Z,35.70
2018-12-11T09:07:43.542Z,39.00
2018-12-11T09:10:30.623Z,44.53
2018-12-11T09:16:49.626Z,39.97
2018-12-11T09:19:36.668Z,36.90
2018-12-11T09:22:23.405Z,39.33
2018-12-11T09:25:10.545Z,47.50
2018-12-11T09:27:54.542Z,38.87
2018-12-11T09:30:43.680Z,39.50
2018-12-11T09:33:36.509Z,39.63
2018-12-11T09:54:29.287Z,38.80
2018-12-11T09:57:14.561Z,37.07
2018-12-11T10:00:01.675Z,40.53
2018-12-11T10:05:39.556Z,40.33
2018-12-11T10:08:25.746Z,50.67
2018-12-11T10:11:13.495Z,48.77
2018-12-11T10:13:57.821Z,39.83
2018-12-11T10:34:46.061Z,40.93
2018-12-11T10:37:31.596Z,43.30
2018-12-11T10:40:24.687Z,46.80
2018-12-11T10:46:14.525Z,42.00
2018-12-11T10:49:01.704Z,42.20
2018-12-11T10:51:46.756Z,39.87
2018-12-11T11:12:44.592Z,51.47
2018-12-11T11:15:28.763Z,41.07
2018-12-11T11:18:23.083Z,51.90
2018-12-11T11:24:12.805Z,241.93
2018-12-11T11:27:05.687Z,158.87
2018-12-11T11:51:12.751Z,51.53
2018-12-11T11:54:00.655Z,53.77
2018-12-11T11:56:46.239Z,51.33
2018-12-11T11:59:33.328Z,46.83
2018-12-11T12:02:19.760Z,45.10
2018-12-11T12:28:53.633Z,38.57
2018-12-11T12:31:38.787Z,119.17
2018-12-11T12:34:25.783Z,81.40
2018-12-11T12:42:56.600Z,53.27
2018-12-11T12:53:27.595Z,44.27
2018-12-11T12:56:21.810Z,36.77
2018-12-11T12:59:12.848Z,41.03
2018-12-11T13:04:51.806Z,37.57
2018-12-11T13:07:42.545Z,36.87
2018-12-11T13:13:48.802Z,37.30
2018-12-11T13:16:41.827Z,38.60
2018-12-11T13:53:04.372Z,36.47
2018-12-11T13:55:54.818Z,36.67
2018-12-11T13:58:43.169Z,36.83
2018-12-11T14:01:33.535Z,35.93
2018-12-11T14:04:18.633Z,33.93
2018-12-11T14:07:09.863Z,34.73
2018-12-11T14:13:36.881Z,36.40
2018-12-11T14:16:42.428Z,37.67
2018-12-11T14:19:31.884Z,37.40
2018-12-11T14:22:20.651Z,35.77
2018-12-11T14:25:08.935Z,34.77
2018-12-11T14:49:05.752Z,87.83
2018-12-11T14:51:55.951Z,102.77
2018-12-11T14:55:01.914Z,93.03
2018-12-11T14:57:55.958Z,50.93
2018-12-11T15:06:54.405Z,39.50
2018-12-11T15:27:44.834Z,39.87
2018-12-11T15:30:41.473Z,41.40
2018-12-11T15:36:30.942Z,40.83
2018-12-11T15:39:17.583Z,39.10
2018-12-11T15:42:07.773Z,41.10
2018-12-11T15:45:03.800Z,40.63
2018-12-11T16:05:52.008Z,43.73
2018-12-11T16:08:45.883Z,41.27
2018-12-11T16:11:31.969Z,43.83
2018-12-11T16:14:19.821Z,45.23
2018-12-11T16:17:09.390Z,44.73
2018-12-11T16:19:53.395Z,42.83
2018-12-11T16:22:41.979Z,44.77
2018-12-11T16:25:32.998Z,44.40
2018-12-11T16:28:50.034Z,92.30
2018-12-11T16:34:37.886Z,48.07
2018-12-11T16:37:25.573Z,45.23
2018-12-11T16:40:13.998Z,47.20
2018-12-11T16:42:58.928Z,47.63
2018-12-11T16:45:47.004Z,45.83
2018-12-11T17:06:40.184Z,49.47
2018-12-11T17:09:28.371Z,49.13
2018-12-11T17:12:23.025Z,48.67
2018-12-11T17:15:07.022Z,52.93
2018-12-11T17:17:59.861Z,55.17
2018-12-11T17:20:44.523Z,51.40
2018-12-11T17:25:00.421Z,50.90
2018-12-11T17:45:48.893Z,50.57
2018-12-11T17:48:31.098Z,48.67
2018-12-11T17:51:21.031Z,51.37
2018-12-11T17:54:06.105Z,53.20
2018-12-11T17:59:43.618Z,54.63
2018-12-11T18:02:34.064Z,53.20
2018-12-11T18:23:21.615Z,59.20
2018-12-11T18:26:06.019Z,59.00
2018-12-11T18:28:52.519Z,60.43
2018-12-11T18:31:42.055Z,58.97
2018-12-11T18:34:32.595Z,61.03
2018-12-11T18:37:16.910Z,57.67
2018-12-11T18:40:03.407Z,59.47
2018-12-11T18:42:49.910Z,59.33
2018-12-11T19:03:49.403Z,62.63
2018-12-11T19:06:35.645Z,64.97
2018-12-11T19:09:23.123Z,65.27
2018-12-11T19:12:09.240Z,64.40
2018-12-11T19:14:56.081Z,65.60
2018-12-11T19:17:42.129Z,64.97
2018-12-11T19:20:32.468Z,67.67
2018-12-11T19:41:19.230Z,69.03
2018-12-11T19:44:05.609Z,66.33
2018-12-11T19:46:50.575Z,69.00
2018-12-11T19:49:37.197Z,66.37
2018-12-11T19:52:22.047Z,67.50
2018-12-11T19:55:09.160Z,66.53
2018-12-11T19:57:59.475Z,63.83
2018-12-11T20:00:41.874Z,67.87
2018-12-11T20:21:28.505Z,65.63
2018-12-11T20:24:18.204Z,67.17
2018-12-11T20:27:07.097Z,68.07
2018-12-11T20:29:54.210Z,66.23
2018-12-11T20:32:46.550Z,69.40
2018-12-11T20:35:33.009Z,69.07
2018-12-11T20:38:23.551Z,66.37
2018-12-11T20:59:12.948Z,70.83
2018-12-11T21:02:02.527Z,68.83
2018-12-11T21:04:47.797Z,70.20
2018-12-11T21:07:38.214Z,68.53
2018-12-11T21:10:28.266Z,70.37
2018-12-11T21:13:12.236Z,68.90
2018-12-11T21:15:58.699Z,71.67
2018-12-11T21:18:47.273Z,72.00
2018-12-11T21:39:37.046Z,69.37
2018-12-11T21:42:19.556Z,66.27
2018-12-11T21:45:06.253Z,70.93
2018-12-11T21:47:52.294Z,71.20
2018-12-11T21:50:36.282Z,74.57
2018-12-11T21:53:23.776Z,70.70
2018-12-11T21:56:09.254Z,68.70
2018-12-11T22:16:52.005Z,66.00
2018-12-11T22:19:38.150Z,70.50
2018-12-11T22:22:25.399Z,65.47
2018-12-11T22:25:12.084Z,67.43
2018-12-11T22:28:01.090Z,70.03
2018-12-11T22:30:50.293Z,69.10
2018-12-11T22:33:40.813Z,69.10
2018-12-11T22:41:35.189Z,66.37
2018-12-11T22:44:17.078Z,70.03
2018-12-11T22:47:04.148Z,68.33
2018-12-11T22:49:47.890Z,70.60
2018-12-11T22:52:33.347Z,67.37
2018-12-11T22:55:19.104Z,67.50
2018-12-11T22:58:32.290Z,65.77
2018-12-11T23:04:25.361Z,100.87
2018-12-11T23:07:15.763Z,71.20
2018-12-11T23:10:10.259Z,68.47
2018-12-11T23:13:10.389Z,67.83
2018-12-11T23:15:59.284Z,68.20
2018-12-11T23:18:45.139Z,68.20
2018-12-11T23:21:31.985Z,66.80
2018-12-11T23:43:17.299Z,69.90
2018-12-11T23:46:02.214Z,68.43
2018-12-11T23:48:47.227Z,69.40
2018-12-11T23:51:31.402Z,73.83
2018-12-11T23:54:18.704Z,69.37
2018-12-11T23:57:04.525Z,71.70
2018-12-11T23:59:50.407Z,72.17
